sensor_id;sensor_type;location;lat;lon;timestamp;pressure;altitude;pressure_sealevel;temperature;humidity
28927;BME280;16038;47.692;9.400;2024-02-28T00:01:01;96419.75;;;6.94;100.00
28927;BME280;16038;47.692;9.400;2024-02-28T00:03:27;96420.00;;;7.05;100.00
28927;BME280;16038;47.692;9.400;2024-02-28T00:05:52;96421.50;;;7.18;100.00
28927;BME280;16038;47.692;9.400;2024-02-28T00:08:18;96422.66;;;7.17;100.00
28927;BME280;16038;47.692;9.400;2024-02-28T00:10:45;96425.28;;;7.14;100.00
28927;BME280;16038;47.692;9.400;2024-02-28T00:13:11;96417.38;;;7.08;100.00
28927;BME280;16038;47.692;9.400;2024-02-28T00:15:36;96421.06;;;7.16;100.00
28927;BME280;16038;47.692;9.400;2024-02-28T00:18:02;96424.44;;;7.10;100.00
28927;BME280;16038;47.692;9.400;2024-02-28T00:20:28;96431.63;;;7.18;100.00
28927;BME280;16038;47.692;9.400;2024-02-28T00:22:55;96430.91;;;7.05;100.00
28927;BME280;16038;47.692;9.400;2024-02-28T00:25:20;96428.28;;;7.08;100.00
28927;BME280;16038;47.692;9.400;2024-02-28T00:27:45;96427.94;;;7.10;100.00
28927;BME280;16038;47.692;9.400;2024-02-28T00:30:11;96426.44;;;7.13;100.00
28927;BME280;16038;47.692;9.400;2024-02-28T00:32:37;96427.75;;;7.19;100.00
28927;BME280;16038;47.692;9.400;2024-02-28T00:35:02;96437.13;;;7.05;100.00
28927;BME280;16038;47.692;9.400;2024-02-28T00:37:29;96442.69;;;7.09;100.00
28927;BME280;16038;47.692;9.400;2024-02-28T00:39:54;96438.63;;;7.03;100.00
28927;BME280;16038;47.692;9.400;2024-02-28T00:42:21;96448.19;;;6.97;100.00
28927;BME280;16038;47.692;9.400;2024-02-28T00:44:47;96448.00;;;6.89;100.00
28927;BME280;16038;47.692;9.400;2024-02-28T00:47:12;96450.19;;;6.84;100.00
28927;BME280;16038;47.692;9.400;2024-02-28T00:49:37;96449.31;;;6.80;100.00
28927;BME280;16038;47.692;9.400;2024-02-28T00:52:03;96454.84;;;6.83;100.00
28927;BME280;16038;47.692;9.400;2024-02-28T00:54:28;96460.09;;;6.76;100.00
28927;BME280;16038;47.692;9.400;2024-02-28T00:56:54;96451.50;;;6.74;100.00
28927;BME280;16038;47.692;9.400;2024-02-28T00:59:19;96461.78;;;6.81;100.00
28927;BME280;16038;47.692;9.400;2024-02-28T01:01:45;96463.00;;;6.83;100.00
28927;BME280;16038;47.692;9.400;2024-02-28T01:04:10;96467.94;;;6.78;100.00
28927;BME280;16038;47.692;9.400;2024-02-28T01:06:35;96468.38;;;6.80;100.00
28927;BME280;16038;47.692;9.400;2024-02-28T01:09:02;96472.59;;;6.77;100.00
28927;BME280;16038;47.692;9.400;2024-02-28T01:11:28;96472.22;;;6.79;100.00
28927;BME280;16038;47.692;9.400;2024-02-28T01:13:53;96478.03;;;6.77;100.00
28927;BME280;16038;47.692;9.400;2024-02-28T01:16:19;96477.41;;;6.84;100.00
28927;BME280;16038;47.692;9.400;2024-02-28T01:18:44;96479.28;;;6.96;100.00
28927;BME280;16038;47.692;9.400;2024-02-28T01:21:09;96482.13;;;6.99;100.00
28927;BME280;16038;47.692;9.400;2024-02-28T01:23:35;96478.13;;;6.97;100.00
28927;BME280;16038;47.692;9.400;2024-02-28T01:26:00;96479.34;;;6.83;100.00
28927;BME280;16038;47.692;9.400;2024-02-28T01:28:29;96476.38;;;6.88;100.00
28927;BME280;16038;47.692;9.400;2024-02-28T01:30:54;96482.25;;;6.91;100.00
28927;BME280;16038;47.692;9.400;2024-02-28T01:33:19;96486.09;;;6.74;100.00
28927;BME280;16038;47.692;9.400;2024-02-28T01:35:45;96478.84;;;6.65;100.00
28927;BME280;16038;47.692;9.400;2024-02-28T01:38:10;96481.88;;;6.76;100.00
28927;BME280;16038;47.692;9.400;2024-02-28T01:40:36;96483.72;;;6.72;100.00
28927;BME280;16038;47.692;9.400;2024-02-28T01:43:08;96480.13;;;6.84;100.00
28927;BME280;16038;47.692;9.400;2024-02-28T01:45:33;96477.84;;;6.86;100.00
28927;BME280;16038;47.692;9.400;2024-02-28T01:47:59;96491.97;;;6.76;100.00
28927;BME280;16038;47.692;9.400;2024-02-28T01:50:25;96485.56;;;6.84;100.00
28927;BME280;16038;47.692;9.400;2024-02-28T01:52:50;96480.31;;;6.91;100.00
28927;BME280;16038;47.692;9.400;2024-02-28T01:55:16;96484.22;;;6.90;100.00
28927;BME280;16038;47.692;9.400;2024-02-28T01:57:42;96484.78;;;6.83;100.00
28927;BME280;16038;47.692;9.400;2024-02-28T02:00:08;96489.22;;;7.04;100.00
28927;BME280;16038;47.692;9.400;2024-02-28T02:02:34;96487.41;;;7.08;100.00
28927;BME280;16038;47.692;9.400;2024-02-28T02:04:59;96486.88;;;7.02;100.00
28927;BME280;16038;47.692;9.400;2024-02-28T02:07:25;96477.09;;;7.01;100.00
28927;BME280;16038;47.692;9.400;2024-02-28T02:09:51;96482.13;;;6.99;100.00
28927;BME280;16038;47.692;9.400;2024-02-28T02:12:17;96479.41;;;6.99;100.00
28927;BME280;16038;47.692;9.400;2024-02-28T02:14:50;96486.69;;;6.95;100.00
28927;BME280;16038;47.692;9.400;2024-02-28T02:17:16;96488.63;;;6.82;100.00
28927;BME280;16038;47.692;9.400;2024-02-28T02:19:41;96490.97;;;6.96;100.00
28927;BME280;16038;47.692;9.400;2024-02-28T02:22:08;96494.47;;;6.97;100.00
28927;BME280;16038;47.692;9.400;2024-02-28T02:27:02;96486.50;;;6.88;100.00
28927;BME280;16038;47.692;9.400;2024-02-28T02:29:30;96499.03;;;6.93;100.00
28927;BME280;16038;47.692;9.400;2024-02-28T02:31:56;96497.63;;;6.83;100.00
28927;BME280;16038;47.692;9.400;2024-02-28T02:34:21;96494.91;;;6.83;100.00
28927;BME280;16038;47.692;9.400;2024-02-28T02:36:47;96497.81;;;6.90;100.00
28927;BME280;16038;47.692;9.400;2024-02-28T02:39:12;96507.78;;;6.86;100.00
28927;BME280;16038;47.692;9.400;2024-02-28T02:41:38;96499.03;;;6.64;100.00
28927;BME280;16038;47.692;9.400;2024-02-28T02:44:03;96503.50;;;6.57;100.00
28927;BME280;16038;47.692;9.400;2024-02-28T02:46:29;96509.47;;;6.62;100.00
28927;BME280;16038;47.692;9.400;2024-02-28T02:48:55;96509.09;;;6.76;100.00
28927;BME280;16038;47.692;9.400;2024-02-28T02:51:20;96509.56;;;6.66;100.00
28927;BME280;16038;47.692;9.400;2024-02-28T02:53:45;96497.91;;;6.65;100.00
28927;BME280;16038;47.692;9.400;2024-02-28T02:56:11;96497.56;;;6.67;100.00
28927;BME280;16038;47.692;9.400;2024-02-28T02:58:36;96504.78;;;6.75;100.00
28927;BME280;16038;47.692;9.400;2024-02-28T03:01:02;96499.50;;;6.66;100.00
28927;BME280;16038;47.692;9.400;2024-02-28T03:03:28;96492.47;;;6.65;100.00
28927;BME280;16038;47.692;9.400;2024-02-28T03:05:53;96497.56;;;6.67;100.00
28927;BME280;16038;47.692;9.400;2024-02-28T03:08:19;96493.44;;;6.73;100.00
28927;BME280;16038;47.692;9.400;2024-02-28T03:10:44;96502.91;;;6.63;100.00
28927;BME280;16038;47.692;9.400;2024-02-28T03:13:09;96498.28;;;6.51;100.00
28927;BME280;16038;47.692;9.400;2024-02-28T03:15:35;96509.16;;;6.51;100.00
28927;BME280;16038;47.692;9.400;2024-02-28T03:18:00;96510.09;;;6.56;100.00
28927;BME280;16038;47.692;9.400;2024-02-28T03:20:26;96510.56;;;6.45;100.00
28927;BME280;16038;47.692;9.400;2024-02-28T03:22:52;96502.59;;;6.53;100.00
28927;BME280;16038;47.692;9.400;2024-02-28T03:25:17;96511.00;;;6.47;100.00
28927;BME280;16038;47.692;9.400;2024-02-28T03:27:43;96500.97;;;6.36;100.00
28927;BME280;16038;47.692;9.400;2024-02-28T03:30:08;96511.25;;;6.30;100.00
28927;BME280;16038;47.692;9.400;2024-02-28T03:32:34;96512.97;;;6.35;100.00
28927;BME280;16038;47.692;9.400;2024-02-28T03:34:59;96520.91;;;6.27;100.00
28927;BME280;16038;47.692;9.400;2024-02-28T03:37:25;96523.53;;;6.24;100.00
28927;BME280;16038;47.692;9.400;2024-02-28T03:39:51;96527.84;;;6.25;100.00
28927;BME280;16038;47.692;9.400;2024-02-28T03:42:16;96534.72;;;6.35;100.00
28927;BME280;16038;47.692;9.400;2024-02-28T03:44:42;96543.78;;;6.26;100.00
28927;BME280;16038;47.692;9.400;2024-02-28T03:47:07;96541.56;;;6.28;100.00
28927;BME280;16038;47.692;9.400;2024-02-28T03:49:32;96530.91;;;6.23;100.00
28927;BME280;16038;47.692;9.400;2024-02-28T03:51:58;96539.50;;;6.25;100.00
28927;BME280;16038;47.692;9.400;2024-02-28T03:54:24;96541.66;;;6.20;100.00
28927;BME280;16038;47.692;9.400;2024-02-28T03:56:49;96540.41;;;6.17;100.00
28927;BME280;16038;47.692;9.400;2024-02-28T03:59:14;96548.47;;;6.13;100.00
28927;BME280;16038;47.692;9.400;2024-02-28T04:01:42;96543.47;;;6.28;100.00
28927;BME280;16038;47.692;9.400;2024-02-28T04:04:07;96548.91;;;6.16;100.00
28927;BME280;16038;47.692;9.400;2024-02-28T04:06:33;96549.94;;;6.23;100.00
28927;BME280;16038;47.692;9.400;2024-02-28T04:08:58;96550.50;;;6.29;100.00
28927;BME280;16038;47.692;9.400;2024-02-28T04:11:23;96556.16;;;6.36;100.00
28927;BME280;16038;47.692;9.400;2024-02-28T04:13:50;96555.25;;;6.32;100.00
28927;BME280;16038;47.692;9.400;2024-02-28T04:16:15;96555.25;;;6.32;100.00
28927;BME280;16038;47.692;9.400;2024-02-28T04:18:40;96557.03;;;6.40;100.00
28927;BME280;16038;47.692;9.400;2024-02-28T04:21:06;96567.59;;;6.29;100.00
28927;BME280;16038;47.692;9.400;2024-02-28T04:23:31;96573.97;;;6.21;100.00
28927;BME280;16038;47.692;9.400;2024-02-28T04:25:57;96572.13;;;6.25;100.00
28927;BME280;16038;47.692;9.400;2024-02-28T04:28:22;96571.34;;;6.25;100.00
28927;BME280;16038;47.692;9.400;2024-02-28T04:30:48;96579.03;;;6.35;100.00
28927;BME280;16038;47.692;9.400;2024-02-28T04:33:13;96575.72;;;6.54;100.00
28927;BME280;16038;47.692;9.400;2024-02-28T04:35:38;96574.50;;;6.39;100.00
28927;BME280;16038;47.692;9.400;2024-02-28T04:38:04;96562.03;;;6.26;100.00
28927;BME280;16038;47.692;9.400;2024-02-28T04:40:29;96570.22;;;6.26;100.00
28927;BME280;16038;47.692;9.400;2024-02-28T04:42:55;96570.97;;;6.39;100.00
28927;BME280;16038;47.692;9.400;2024-02-28T04:45:20;96577.56;;;6.50;100.00
28927;BME280;16038;47.692;9.400;2024-02-28T04:47:45;96588.69;;;6.32;100.00
28927;BME280;16038;47.692;9.400;2024-02-28T04:50:11;96580.97;;;6.10;100.00
28927;BME280;16038;47.692;9.400;2024-02-28T04:52:36;96586.63;;;6.05;100.00
28927;BME280;16038;47.692;9.400;2024-02-28T04:55:02;96588.13;;;6.15;100.00
28927;BME280;16038;47.692;9.400;2024-02-28T04:57:28;96586.97;;;6.16;100.00
28927;BME280;16038;47.692;9.400;2024-02-28T04:59:54;96600.00;;;6.10;100.00
28927;BME280;16038;47.692;9.400;2024-02-28T05:02:19;96599.44;;;6.17;100.00
28927;BME280;16038;47.692;9.400;2024-02-28T05:04:47;96603.66;;;6.14;100.00
28927;BME280;16038;47.692;9.400;2024-02-28T05:07:12;96606.50;;;6.18;100.00
28927;BME280;16038;47.692;9.400;2024-02-28T05:09:38;96606.00;;;6.16;100.00
28927;BME280;16038;47.692;9.400;2024-02-28T05:12:03;96610.00;;;6.18;100.00
28927;BME280;16038;47.692;9.400;2024-02-28T05:14:29;96612.72;;;6.18;100.00
28927;BME280;16038;47.692;9.400;2024-02-28T05:16:55;96608.06;;;6.19;100.00
28927;BME280;16038;47.692;9.400;2024-02-28T05:19:20;96612.03;;;6.09;100.00
28927;BME280;16038;47.692;9.400;2024-02-28T05:21:46;96615.75;;;6.04;100.00
28927;BME280;16038;47.692;9.400;2024-02-28T05:24:12;96622.09;;;6.21;100.00
28927;BME280;16038;47.692;9.400;2024-02-28T05:26:38;96622.56;;;6.10;100.00
28927;BME280;16038;47.692;9.400;2024-02-28T05:29:04;96626.53;;;6.13;100.00
28927;BME280;16038;47.692;9.400;2024-02-28T05:31:30;96629.03;;;6.18;100.00
28927;BME280;16038;47.692;9.400;2024-02-28T05:33:59;96641.84;;;6.18;100.00
28927;BME280;16038;47.692;9.400;2024-02-28T05:36:27;96639.59;;;6.32;100.00
28927;BME280;16038;47.692;9.400;2024-02-28T05:38:54;96647.50;;;6.12;100.00
28927;BME280;16038;47.692;9.400;2024-02-28T05:41:20;96650.53;;;5.99;100.00
28927;BME280;16038;47.692;9.400;2024-02-28T05:43:46;96655.19;;;5.98;100.00
28927;BME280;16038;47.692;9.400;2024-02-28T05:46:12;96660.75;;;6.02;100.00
28927;BME280;16038;47.692;9.400;2024-02-28T05:48:37;96660.88;;;6.18;100.00
28927;BME280;16038;47.692;9.400;2024-02-28T05:51:03;96665.63;;;6.21;100.00
28927;BME280;16038;47.692;9.400;2024-02-28T05:53:29;96674.91;;;6.07;100.00
28927;BME280;16038;47.692;9.400;2024-02-28T05:56:01;96682.28;;;6.07;100.00
28927;BME280;16038;47.692;9.400;2024-02-28T05:58:27;96671.06;;;6.21;100.00
28927;BME280;16038;47.692;9.400;2024-02-28T06:00:52;96675.06;;;6.36;100.00
28927;BME280;16038;47.692;9.400;2024-02-28T06:03:18;96677.63;;;6.44;100.00
28927;BME280;16038;47.692;9.400;2024-02-28T06:05:43;96682.53;;;6.51;100.00
28927;BME280;16038;47.692;9.400;2024-02-28T06:08:08;96684.34;;;6.59;100.00
28927;BME280;16038;47.692;9.400;2024-02-28T06:10:34;96688.19;;;6.58;100.00
28927;BME280;16038;47.692;9.400;2024-02-28T06:12:59;96694.19;;;6.64;100.00
28927;BME280;16038;47.692;9.400;2024-02-28T06:15:26;96694.09;;;6.48;100.00
28927;BME280;16038;47.692;9.400;2024-02-28T06:17:51;96700.31;;;6.61;100.00
28927;BME280;16038;47.692;9.400;2024-02-28T06:20:17;96713.59;;;6.62;100.00
28927;BME280;16038;47.692;9.400;2024-02-28T06:22:42;96712.47;;;6.63;100.00
28927;BME280;16038;47.692;9.400;2024-02-28T06:25:11;96719.47;;;6.64;100.00
28927;BME280;16038;47.692;9.400;2024-02-28T06:27:44;96719.72;;;6.59;100.00
28927;BME280;16038;47.692;9.400;2024-02-28T06:30:10;96718.94;;;6.46;100.00
28927;BME280;16038;47.692;9.400;2024-02-28T06:32:37;96728.13;;;6.54;100.00
28927;BME280;16038;47.692;9.400;2024-02-28T06:35:03;96737.63;;;6.60;100.00
28927;BME280;16038;47.692;9.400;2024-02-28T06:37:29;96734.41;;;6.34;100.00
28927;BME280;16038;47.692;9.400;2024-02-28T06:39:55;96741.38;;;6.56;100.00
28927;BME280;16038;47.692;9.400;2024-02-28T06:42:21;96743.78;;;6.57;100.00
28927;BME280;16038;47.692;9.400;2024-02-28T06:44:46;96756.56;;;6.57;100.00
28927;BME280;16038;47.692;9.400;2024-02-28T06:47:11;96765.75;;;6.64;100.00
28927;BME280;16038;47.692;9.400;2024-02-28T06:49:37;96757.94;;;6.63;100.00
28927;BME280;16038;47.692;9.400;2024-02-28T06:52:03;96764.63;;;6.65;100.00
28927;BME280;16038;47.692;9.400;2024-02-28T06:54:29;96767.25;;;6.74;100.00
28927;BME280;16038;47.692;9.400;2024-02-28T06:56:55;96772.56;;;6.83;100.00
28927;BME280;16038;47.692;9.400;2024-02-28T06:59:20;96766.69;;;6.81;100.00
28927;BME280;16038;47.692;9.400;2024-02-28T07:01:46;96770.31;;;6.85;100.00
28927;BME280;16038;47.692;9.400;2024-02-28T07:04:11;96774.84;;;6.68;100.00
28927;BME280;16038;47.692;9.400;2024-02-28T07:06:36;96781.41;;;6.67;100.00
28927;BME280;16038;47.692;9.400;2024-02-28T07:09:02;96776.06;;;6.71;100.00
28927;BME280;16038;47.692;9.400;2024-02-28T07:11:28;96780.84;;;6.74;100.00
28927;BME280;16038;47.692;9.400;2024-02-28T07:13:53;96779.56;;;6.35;100.00
28927;BME280;16038;47.692;9.400;2024-02-28T07:16:19;96779.66;;;6.38;100.00
28927;BME280;16038;47.692;9.400;2024-02-28T07:18:44;96784.78;;;6.06;100.00
28927;BME280;16038;47.692;9.400;2024-02-28T07:21:10;96791.38;;;6.05;100.00
28927;BME280;16038;47.692;9.400;2024-02-28T07:23:39;96792.53;;;6.17;100.00
28927;BME280;16038;47.692;9.400;2024-02-28T07:26:05;96793.19;;;6.47;100.00
28927;BME280;16038;47.692;9.400;2024-02-28T07:28:31;96798.50;;;6.43;100.00
28927;BME280;16038;47.692;9.400;2024-02-28T07:30:56;96795.94;;;6.59;100.00
28927;BME280;16038;47.692;9.400;2024-02-28T07:33:22;96802.94;;;6.60;100.00
28927;BME280;16038;47.692;9.400;2024-02-28T07:35:51;96807.97;;;6.70;100.00
28927;BME280;16038;47.692;9.400;2024-02-28T07:38:17;96801.69;;;6.58;100.00
28927;BME280;16038;47.692;9.400;2024-02-28T07:40:45;96814.97;;;6.72;100.00
28927;BME280;16038;47.692;9.400;2024-02-28T07:43:11;96808.25;;;6.57;100.00
28927;BME280;16038;47.692;9.400;2024-02-28T07:45:36;96802.50;;;5.91;100.00
28927;BME280;16038;47.692;9.400;2024-02-28T07:48:02;96809.28;;;5.85;100.00
28927;BME280;16038;47.692;9.400;2024-02-28T07:50:28;96808.47;;;5.85;100.00
28927;BME280;16038;47.692;9.400;2024-02-28T07:52:56;96807.81;;;5.88;100.00
28927;BME280;16038;47.692;9.400;2024-02-28T07:55:21;96815.16;;;6.08;100.00
28927;BME280;16038;47.692;9.400;2024-02-28T07:57:53;96823.13;;;5.92;100.00
28927;BME280;16038;47.692;9.400;2024-02-28T08:00:19;96807.81;;;5.67;100.00
28927;BME280;16038;47.692;9.400;2024-02-28T08:02:45;96822.59;;;5.57;100.00
28927;BME280;16038;47.692;9.400;2024-02-28T08:05:11;96817.16;;;5.57;100.00
28927;BME280;16038;47.692;9.400;2024-02-28T08:07:36;96824.84;;;5.76;100.00
28927;BME280;16038;47.692;9.400;2024-02-28T08:10:02;96816.22;;;5.74;100.00
28927;BME280;16038;47.692;9.400;2024-02-28T08:12:30;96827.41;;;5.93;100.00
28927;BME280;16038;47.692;9.400;2024-02-28T08:14:56;96824.06;;;5.97;100.00
28927;BME280;16038;47.692;9.400;2024-02-28T08:17:21;96822.19;;;5.88;100.00
28927;BME280;16038;47.692;9.400;2024-02-28T08:19:47;96825.72;;;5.89;100.00
28927;BME280;16038;47.692;9.400;2024-02-28T08:22:12;96824.25;;;5.91;100.00
28927;BME280;16038;47.692;9.400;2024-02-28T08:24:37;96824.56;;;5.90;100.00
28927;BME280;16038;47.692;9.400;2024-02-28T08:27:03;96828.63;;;5.63;100.00
28927;BME280;16038;47.692;9.400;2024-02-28T08:29:28;96835.53;;;5.60;100.00
28927;BME280;16038;47.692;9.400;2024-02-28T08:31:54;96834.72;;;5.60;100.00
28927;BME280;16038;47.692;9.400;2024-02-28T08:34:20;96831.66;;;5.61;100.00
28927;BME280;16038;47.692;9.400;2024-02-28T08:36:45;96848.56;;;5.88;100.00
28927;BME280;16038;47.692;9.400;2024-02-28T08:39:10;96849.31;;;6.18;100.00
28927;BME280;16038;47.692;9.400;2024-02-28T08:41:36;96847.69;;;6.38;100.00
28927;BME280;16038;47.692;9.400;2024-02-28T08:44:02;96849.00;;;5.99;100.00
28927;BME280;16038;47.692;9.400;2024-02-28T08:46:27;96848.53;;;5.97;100.00
28927;BME280;16038;47.692;9.400;2024-02-28T08:48:52;96858.91;;;6.16;100.00
28927;BME280;16038;47.692;9.400;2024-02-28T08:51:18;96859.75;;;6.16;100.00
28927;BME280;16038;47.692;9.400;2024-02-28T08:53:43;96846.13;;;5.95;100.00
28927;BME280;16038;47.692;9.400;2024-02-28T08:56:09;96853.06;;;6.26;100.00
28927;BME280;16038;47.692;9.400;2024-02-28T08:58:34;96850.31;;;6.47;100.00
28927;BME280;16038;47.692;9.400;2024-02-28T09:00:59;96852.47;;;6.41;100.00
28927;BME280;16038;47.692;9.400;2024-02-28T09:03:25;96863.38;;;6.54;100.00
28927;BME280;16038;47.692;9.400;2024-02-28T09:05:50;96857.97;;;6.32;100.00
28927;BME280;16038;47.692;9.400;2024-02-28T09:08:16;96858.22;;;6.40;100.00
28927;BME280;16038;47.692;9.400;2024-02-28T09:10:42;96859.59;;;6.12;100.00
28927;BME280;16038;47.692;9.400;2024-02-28T09:13:07;96863.19;;;6.04;100.00
28927;BME280;16038;47.692;9.400;2024-02-28T09:15:33;96864.91;;;6.09;100.00
28927;BME280;16038;47.692;9.400;2024-02-28T09:17:59;96861.06;;;6.10;100.00
28927;BME280;16038;47.692;9.400;2024-02-28T09:20:26;96861.97;;;5.93;100.00
28927;BME280;16038;47.692;9.400;2024-02-28T09:22:51;96864.66;;;6.02;100.00
28927;BME280;16038;47.692;9.400;2024-02-28T09:25:16;96871.00;;;6.27;100.00
28927;BME280;16038;47.692;9.400;2024-02-28T09:27:43;96869.94;;;6.19;100.00
28927;BME280;16038;47.692;9.400;2024-02-28T09:30:09;96877.66;;;6.50;100.00
28927;BME280;16038;47.692;9.400;2024-02-28T09:32:34;96878.72;;;6.70;100.00
28927;BME280;16038;47.692;9.400;2024-02-28T09:35:00;96876.75;;;6.59;100.00
28927;BME280;16038;47.692;9.400;2024-02-28T09:37:25;96870.56;;;6.37;100.00
28927;BME280;16038;47.692;9.400;2024-02-28T09:39:51;96875.88;;;6.34;100.00
28927;BME280;16038;47.692;9.400;2024-02-28T09:42:16;96884.13;;;6.58;100.00
28927;BME280;16038;47.692;9.400;2024-02-28T09:44:42;96882.25;;;6.38;100.00
28927;BME280;16038;47.692;9.400;2024-02-28T09:47:08;96891.06;;;6.68;100.00
28927;BME280;16038;47.692;9.400;2024-02-28T09:49:35;96888.22;;;7.10;100.00
28927;BME280;16038;47.692;9.400;2024-02-28T09:52:03;96891.97;;;7.42;100.00
28927;BME280;16038;47.692;9.400;2024-02-28T09:54:29;96882.97;;;7.54;100.00
28927;BME280;16038;47.692;9.400;2024-02-28T09:56:54;96886.34;;;7.76;100.00
28927;BME280;16038;47.692;9.400;2024-02-28T09:59:20;96893.50;;;7.93;100.00
28927;BME280;16038;47.692;9.400;2024-02-28T10:01:56;96898.91;;;7.27;100.00
28927;BME280;16038;47.692;9.400;2024-02-28T10:04:26;96896.72;;;7.70;100.00
28927;BME280;16038;47.692;9.400;2024-02-28T10:06:53;96897.59;;;7.87;100.00
28927;BME280;16038;47.692;9.400;2024-02-28T10:09:18;96901.47;;;7.73;100.00
28927;BME280;16038;47.692;9.400;2024-02-28T10:11:44;96897.16;;;6.98;100.00
28927;BME280;16038;47.692;9.400;2024-02-28T10:14:11;96904.25;;;6.78;100.00
28927;BME280;16038;47.692;9.400;2024-02-28T10:16:37;96905.81;;;7.50;100.00
28927;BME280;16038;47.692;9.400;2024-02-28T10:19:05;96892.63;;;7.64;100.00
28927;BME280;16038;47.692;9.400;2024-02-28T10:21:30;96894.19;;;7.90;100.00
28927;BME280;16038;47.692;9.400;2024-02-28T10:23:58;96893.19;;;7.57;100.00
28927;BME280;16038;47.692;9.400;2024-02-28T10:26:23;96899.81;;;7.56;100.00
28927;BME280;16038;47.692;9.400;2024-02-28T10:28:51;96901.72;;;7.56;100.00
28927;BME280;16038;47.692;9.400;2024-02-28T10:31:17;96894.47;;;7.23;100.00
28927;BME280;16038;47.692;9.400;2024-02-28T10:33:42;96898.28;;;6.97;100.00
28927;BME280;16038;47.692;9.400;2024-02-28T10:36:08;96893.81;;;6.80;100.00
28927;BME280;16038;47.692;9.400;2024-02-28T10:38:34;96894.75;;;6.97;100.00
28927;BME280;16038;47.692;9.400;2024-02-28T10:41:00;96902.41;;;7.53;100.00
28927;BME280;16038;47.692;9.400;2024-02-28T10:43:28;96905.59;;;7.67;100.00
28927;BME280;16038;47.692;9.400;2024-02-28T10:46:00;96902.34;;;8.02;100.00
28927;BME280;16038;47.692;9.400;2024-02-28T10:48:26;96902.88;;;7.30;100.00
28927;BME280;16038;47.692;9.400;2024-02-28T10:50:52;96900.69;;;7.36;100.00
28927;BME280;16038;47.692;9.400;2024-02-28T10:53:37;96910.22;;;7.54;100.00
28927;BME280;16038;47.692;9.400;2024-02-28T10:56:05;96904.66;;;7.63;100.00
28927;BME280;16038;47.692;9.400;2024-02-28T10:58:36;96901.81;;;7.47;100.00
28927;BME280;16038;47.692;9.400;2024-02-28T11:01:06;96898.88;;;7.77;100.00
28927;BME280;16038;47.692;9.400;2024-02-28T11:03:33;96903.19;;;8.18;100.00
28927;BME280;16038;47.692;9.400;2024-02-28T11:05:59;96897.13;;;7.84;100.00
28927;BME280;16038;47.692;9.400;2024-02-28T11:08:27;96889.91;;;7.76;100.00
28927;BME280;16038;47.692;9.400;2024-02-28T11:10:56;96894.41;;;7.84;100.00
28927;BME280;16038;47.692;9.400;2024-02-28T11:13:26;96900.56;;;8.22;100.00
28927;BME280;16038;47.692;9.400;2024-02-28T11:15:53;96901.59;;;8.17;100.00
28927;BME280;16038;47.692;9.400;2024-02-28T11:18:18;96899.03;;;8.49;100.00
28927;BME280;16038;47.692;9.400;2024-02-28T11:20:44;96899.88;;;8.25;100.00
28927;BME280;16038;47.692;9.400;2024-02-28T11:23:13;96901.56;;;8.42;100.00
28927;BME280;16038;47.692;9.400;2024-02-28T11:25:42;96892.72;;;8.61;100.00
28927;BME280;16038;47.692;9.400;2024-02-28T11:28:09;96898.28;;;8.65;100.00
28927;BME280;16038;47.692;9.400;2024-02-28T11:30:34;96892.00;;;9.24;100.00
28927;BME280;16038;47.692;9.400;2024-02-28T11:33:00;96905.34;;;8.25;100.00
28927;BME280;16038;47.692;9.400;2024-02-28T11:35:28;96902.13;;;8.64;100.00
28927;BME280;16038;47.692;9.400;2024-02-28T11:37:55;96900.78;;;8.29;100.00
28927;BME280;16038;47.692;9.400;2024-02-28T11:40:24;96891.22;;;7.95;100.00
28927;BME280;16038;47.692;9.400;2024-02-28T11:42:56;96885.22;;;7.77;100.00
28927;BME280;16038;47.692;9.400;2024-02-28T11:45:23;96880.34;;;7.58;100.00
28927;BME280;16038;47.692;9.400;2024-02-28T11:47:48;96887.53;;;7.62;100.00
28927;BME280;16038;47.692;9.400;2024-02-28T11:50:14;96886.06;;;7.53;100.00
28927;BME280;16038;47.692;9.400;2024-02-28T11:52:45;96898.66;;;7.70;100.00
28927;BME280;16038;47.692;9.400;2024-02-28T11:55:11;96897.22;;;8.00;100.00
28927;BME280;16038;47.692;9.400;2024-02-28T11:57:37;96885.91;;;7.74;100.00
28927;BME280;16038;47.692;9.400;2024-02-28T12:00:04;96886.03;;;7.65;100.00
28927;BME280;16038;47.692;9.400;2024-02-28T12:02:30;96895.59;;;7.46;100.00
28927;BME280;16038;47.692;9.400;2024-02-28T12:05:00;96888.41;;;7.79;100.00
28927;BME280;16038;47.692;9.400;2024-02-28T12:07:26;96886.84;;;7.65;100.00
28927;BME280;16038;47.692;9.400;2024-02-28T12:09:53;96893.19;;;8.22;100.00
28927;BME280;16038;47.692;9.400;2024-02-28T12:12:19;96886.34;;;7.76;100.00
28927;BME280;16038;47.692;9.400;2024-02-28T12:14:46;96888.94;;;7.97;100.00
28927;BME280;16038;47.692;9.400;2024-02-28T12:17:11;96888.28;;;7.75;100.00
28927;BME280;16038;47.692;9.400;2024-02-28T12:19:36;96881.81;;;7.80;100.00
28927;BME280;16038;47.692;9.400;2024-02-28T12:22:02;96888.19;;;7.59;100.00
28927;BME280;16038;47.692;9.400;2024-02-28T12:24:29;96894.91;;;7.37;100.00
28927;BME280;16038;47.692;9.400;2024-02-28T12:26:54;96888.41;;;7.66;100.00
28927;BME280;16038;47.692;9.400;2024-02-28T12:29:20;96887.28;;;7.68;100.00
28927;BME280;16038;47.692;9.400;2024-02-28T12:31:45;96894.84;;;7.87;100.00
28927;BME280;16038;47.692;9.400;2024-02-28T12:34:11;96890.78;;;7.80;100.00
28927;BME280;16038;47.692;9.400;2024-02-28T12:36:36;96888.88;;;7.69;100.00
28927;BME280;16038;47.692;9.400;2024-02-28T12:39:01;96884.06;;;8.31;100.00
28927;BME280;16038;47.692;9.400;2024-02-28T12:41:28;96885.19;;;8.30;100.00
28927;BME280;16038;47.692;9.400;2024-02-28T12:43:54;96889.16;;;8.89;100.00
28927;BME280;16038;47.692;9.400;2024-02-28T12:46:19;96888.00;;;8.74;100.00
28927;BME280;16038;47.692;9.400;2024-02-28T12:48:45;96886.22;;;7.97;100.00
28927;BME280;16038;47.692;9.400;2024-02-28T12:51:31;96888.88;;;8.21;100.00
28927;BME280;16038;47.692;9.400;2024-02-28T12:54:00;96881.00;;;7.79;100.00
28927;BME280;16038;47.692;9.400;2024-02-28T12:56:25;96882.19;;;7.66;100.00